WetterOnline ( http://www.wetteronline.de )

Wetter aktuell Schkopau

Aktuelles Wetter: Leipzig/Halle (136m)

6-stündlich | Neueste Meldungen
Ortszeit Temperatur Wetter
Mi, 20.02. 19:00 7.4° C bedeckt
Mi, 20.02. 13:00 9.5° C leicht bewölkt
Mi, 20.02. 7:00 3.7° C bewölkt
Mi, 20.02. 1:00 3.4° C leicht bewölkt
Di, 19.02. 19:00 6.0° C wolkig
Di, 19.02. 13:00 8.1° C leichter Regen
Di, 19.02. 7:00 4.7° C leicht bewölkt
Di, 19.02. 1:00 6.5° C leicht bewölkt
Ortszeit Temperatur Wetter
Mi, 20.02. 23:00 5.1° C wolkig
Mi, 20.02. 22:50 5.1° C bewölkt
Mi, 20.02. 22:40 5.9° C bewölkt
Mi, 20.02. 22:30 6.7° C bedeckt
Mi, 20.02. 22:20 6.7° C bedeckt
Mi, 20.02. 22:10 7.2° C bedeckt
Mi, 20.02. 22:00 6.9° C bedeckt
Mi, 20.02. 21:30 7.2° C bedeckt
Mi, 20.02. 21:00 7.0° C bedeckt
Mi, 20.02. 20:30 7.0° C bedeckt
Mi, 20.02. 20:00 7.1° C bedeckt
Ortszeit Relative Feuchte Sichtweite
Mi, 20.02. 19:00 66% 40 km
Mi, 20.02. 13:00 57% 40 km
Mi, 20.02. 7:00 81% 20 km
Mi, 20.02. 1:00 81% 25 km
Di, 19.02. 19:00 78% 30 km
Di, 19.02. 13:00 67% 35 km
Di, 19.02. 7:00 66% 30 km
Di, 19.02. 1:00 58% 40 km
Ortszeit Relative Feuchte Sichtweite
Mi, 20.02. 23:00 75% 30 km
Mi, 20.02. 22:50 75% -
Mi, 20.02. 22:40 72% -
Mi, 20.02. 22:30 69% -
Mi, 20.02. 22:20 69% -
Mi, 20.02. 22:10 68% -
Mi, 20.02. 22:00 69% 30 km
Mi, 20.02. 21:30 68% -
Mi, 20.02. 21:00 68% 35 km
Mi, 20.02. 20:30 68% -
Mi, 20.02. 20:00 67% 35 km
Ortszeit Niederschlagsmenge Niederschlagsart
Mi, 20.02. 19:00 0.0 l/m2 in 12 Std. -
Mi, 20.02. 13:00 0.0 l/m2 in 6 Std. -
Mi, 20.02. 7:00 0.0 l/m2 in 12 Std. -
Mi, 20.02. 1:00 0.0 l/m2 in 6 Std. -
Di, 19.02. 19:00 0.1 l/m2 in 12 Std. -
Di, 19.02. 13:00 0.1 l/m2 in 6 Std. -
Di, 19.02. 7:00 0.0 l/m2 in 12 Std. -
Di, 19.02. 1:00 0.0 l/m2 in 6 Std. -
Ortszeit Niederschlagsmenge Niederschlagsart
Mi, 20.02. 23:00 0.0 l/m2 in 1 Std. -
Mi, 20.02. 22:50 keine Meldung -
Mi, 20.02. 22:40 keine Meldung -
Mi, 20.02. 22:30 0.0 l/m2 in 1 Std. -
Mi, 20.02. 22:20 keine Meldung -
Mi, 20.02. 22:10 keine Meldung -
Mi, 20.02. 22:00 0.0 l/m2 in 1 Std. -
Mi, 20.02. 21:30 0.0 l/m2 in 1 Std. -
Mi, 20.02. 21:00 0.0 l/m2 in 1 Std. -
Mi, 20.02. 20:30 0.0 l/m2 in 1 Std. -
Mi, 20.02. 20:00 0.0 l/m2 in 1 Std. -
Ortszeit Stärke Spitze Richtung
km/h Bft. km/h Grad Sektor
Mi, 20.02. 19:00 14 3 43 230° SW
Mi, 20.02. 13:00 25 4 36 250° W
Mi, 20.02. 7:00 17 3 30 230° SW
Mi, 20.02. 1:00 14 3 32 220° SW
Di, 19.02. 19:00 17 3 37 230° SW
Di, 19.02. 13:00 25 4 40 250° W
Di, 19.02. 7:00 18 3 25 210° SW
Di, 19.02. 1:00 14 3 25 200° S
Ortszeit Stärke Spitze Richtung
km/h Bft. km/h Grad Sektor
Mi, 20.02. 23:00 13 3 17 230° SW
Mi, 20.02. 22:50 13 3 - 230° SW
Mi, 20.02. 22:40 13 3 - 230° SW
Mi, 20.02. 22:30 11 2 17 230° SW
Mi, 20.02. 22:20 13 3 - 230° SW
Mi, 20.02. 22:10 11 2 - 230° SW
Mi, 20.02. 22:00 13 3 17 230° SW
Mi, 20.02. 21:30 13 3 17 230° SW
Mi, 20.02. 21:00 11 2 18 230° SW
Mi, 20.02. 20:30 11 2 17 240° SW
Mi, 20.02. 20:00 13 3 19 220° SW
Ortszeit Untergrenze Bedeckung Gattung
total tief tief mittel hoch
Mi, 20.02. 19:00 1500 m 8/8 2/8 Sc Ac -
Mi, 20.02. 13:00 900 m 7/8 1/8 Cu Ac Ci
Mi, 20.02. 7:00 1500 m 7/8 7/8 Sc - -
Mi, 20.02. 1:00 2100 m 3/8 3/8 Sc - -
Di, 19.02. 19:00 1800 m 5/8 5/8 Sc - -
Di, 19.02. 13:00 1140 m 8/8 7/8 Sc - -
Di, 19.02. 7:00 7500 m 7/8 0/8 - - Ci
Di, 19.02. 1:00 7800 m 4/8 0/8 - - Ci
Ortszeit Bedeckungsgrad in Achtel und Wolkenuntergrenze
Mi, 20.02. 23:00 5(1800m) 7(8700m)
Mi, 20.02. 22:50 7(1800m) 7(6000m) 8(8400m)
Mi, 20.02. 22:40 7(1800m) 7(6000m) 8(9000m)
Mi, 20.02. 22:30 8(1800m)
Mi, 20.02. 22:20 8(1800m) 8(2400m)
Mi, 20.02. 22:10 8(1800m)
Mi, 20.02. 22:00 7(1800m)
Mi, 20.02. 21:30 8(1800m)
Mi, 20.02. 21:00 1(1470m) 8(2100m)
Mi, 20.02. 20:30 2(1470m) 8(1800m)
Mi, 20.02. 20:00 5(1350m) 8(1800m)
Ortszeit Luftdruck NN (hPa) Tendenz (hPa in 3 Std.)
Mi, 20.02. 19:00 1024 + 1,2
Mi, 20.02. 13:00 1023 + 0,4
Mi, 20.02. 7:00 1021 + 0,6
Mi, 20.02. 1:00 1020 + 0,8
Di, 19.02. 19:00 1019 + 0,9
Di, 19.02. 13:00 1018 + 0,6
Di, 19.02. 7:00 1016 + 0,2
Di, 19.02. 1:00 1017 - 0,4
Ortszeit Luftdruck NN (hPa) Tendenz (hPa in 3 Std.)
Mi, 20.02. 23:00 1025 + 0,2
Mi, 20.02. 22:50 1025 keine Meldung
Mi, 20.02. 22:40 1025 keine Meldung
Mi, 20.02. 22:30 1025 + 0,4
Mi, 20.02. 22:20 1025 keine Meldung
Mi, 20.02. 22:10 1025 keine Meldung
Mi, 20.02. 22:00 1025 + 0,6
Mi, 20.02. 21:30 1025 + 0,9
Mi, 20.02. 21:00 1025 + 1,1
Mi, 20.02. 20:30 1025 + 1,2
Mi, 20.02. 20:00 1025 + 1,3
Ortszeit Schneehöhe (cm)
Mi, 20.02. 19:00 0
Mi, 20.02. 13:00 0
Mi, 20.02. 7:00 0
Mi, 20.02. 1:00 0
Di, 19.02. 19:00 0
Di, 19.02. 13:00 0
Di, 19.02. 7:00 0
Di, 19.02. 1:00 0
Ortszeit Schneehöhe (cm)
Mi, 20.02. 23:00 -
Mi, 20.02. 22:50 -
Mi, 20.02. 22:40 -
Mi, 20.02. 22:30 -
Mi, 20.02. 22:20 -
Mi, 20.02. 22:10 -
Mi, 20.02. 22:00 -
Mi, 20.02. 21:30 -
Mi, 20.02. 21:00 -
Mi, 20.02. 20:30 -
Mi, 20.02. 20:00 -
Link zu dieser Seite / Seite empfehlen

Das Wetter in ...